createdAt,value
2023-04-10T00:03:02.959Z,9.0
2023-04-10T00:08:08.728Z,8.0
2023-04-10T00:13:13.966Z,8.0
2023-04-10T00:18:20.166Z,8.0
2023-04-10T00:23:26.382Z,8.0
2023-04-10T00:28:32.587Z,8.0
2023-04-10T00:33:38.789Z,8.0
2023-04-10T00:38:45.007Z,9.0
2023-04-10T00:43:51.441Z,12.0
2023-04-10T00:48:57.467Z,16.0
2023-04-10T00:54:03.628Z,13.0
2023-04-10T00:59:09.847Z,10.0
2023-04-10T01:04:16.172Z,9.0
2023-04-10T01:09:22.248Z,9.0
2023-04-10T01:14:28.459Z,9.0
2023-04-10T01:19:34.661Z,9.0
2023-04-10T01:24:40.869Z,9.0
2023-04-10T01:29:47.082Z,10.0
2023-04-10T01:34:53.285Z,9.0
2023-04-10T01:39:59.572Z,10.0
2023-04-10T01:45:05.706Z,10.0
2023-04-10T01:50:11.915Z,11.0
2023-04-10T01:55:18.115Z,12.0
2023-04-10T02:00:23.411Z,12.0
2023-04-10T02:05:29.570Z,14.0
2023-04-10T02:10:34.796Z,14.0
2023-04-10T02:15:41.029Z,13.0
2023-04-10T02:20:47.216Z,10.0
2023-04-10T02:25:53.422Z,9.0
2023-04-10T02:30:59.671Z,9.0
2023-04-10T02:36:05.948Z,9.0
2023-04-10T02:41:12.041Z,9.0
2023-04-10T02:46:18.315Z,9.0
2023-04-10T02:51:24.482Z,9.0
2023-04-10T02:56:30.679Z,9.0
2023-04-10T03:01:36.946Z,9.0
2023-04-10T03:06:43.084Z,9.0
2023-04-10T03:11:49.303Z,9.0
2023-04-10T03:16:55.515Z,9.0
2023-04-10T03:22:01.731Z,9.0
2023-04-10T03:27:07.917Z,9.0
2023-04-10T03:32:14.136Z,9.0
2023-04-10T03:37:20.347Z,9.0
2023-04-10T03:42:26.556Z,9.0
2023-04-10T03:47:32.759Z,9.5
2023-04-10T03:52:38.955Z,9.0
2023-04-10T03:57:44.416Z,9.0
2023-04-10T04:02:50.692Z,9.0
2023-04-10T04:07:56.609Z,9.0
2023-04-10T04:13:01.872Z,9.0
2023-04-10T04:18:08.041Z,9.0
2023-04-10T04:23:14.252Z,9.0
2023-04-10T04:28:20.468Z,9.5
2023-04-10T04:33:26.669Z,9.5
2023-04-10T04:38:32.889Z,10.0
2023-04-10T04:43:39.109Z,9.0
2023-04-10T04:48:45.298Z,10.0
2023-04-10T04:53:51.668Z,10.0
2023-04-10T04:58:57.716Z,10.0
2023-04-10T05:04:04.043Z,10.0
2023-04-10T05:09:10.156Z,10.0
2023-04-10T05:14:16.330Z,10.0
2023-04-10T05:19:22.538Z,10.0
2023-04-10T05:24:28.746Z,10.0
2023-04-10T05:29:34.957Z,10.0
2023-04-10T05:34:41.159Z,10.0
2023-04-10T05:39:47.394Z,10.0
2023-04-10T05:44:53.577Z,10.0
2023-04-10T05:49:59.808Z,10.0
2023-04-10T05:55:06.010Z,10.0
2023-04-10T06:00:11.224Z,10.0
2023-04-10T06:05:17.511Z,10.0
2023-04-10T06:10:22.677Z,10.0
2023-04-10T06:15:28.888Z,11.0
2023-04-10T06:20:35.101Z,10.0
2023-04-10T06:25:41.304Z,10.0
2023-04-10T06:30:47.510Z,10.0
2023-04-10T06:35:53.733Z,10.0
2023-04-10T06:40:59.923Z,9.0
2023-04-10T06:46:06.135Z,9.0
2023-04-10T06:51:12.345Z,9.0
2023-04-10T06:56:18.543Z,9.0
2023-04-10T07:01:26.083Z,9.0
2023-04-10T07:06:31.410Z,9.0
2023-04-10T07:11:37.231Z,9.0
2023-04-10T07:16:43.464Z,9.0
2023-04-10T07:21:49.580Z,9.0
2023-04-10T07:26:55.795Z,9.0
2023-04-10T07:32:02.094Z,9.0
2023-04-10T07:37:08.217Z,9.0
2023-04-10T07:42:14.433Z,8.0
2023-04-10T07:47:20.670Z,8.0
2023-04-10T07:52:26.892Z,8.0
2023-04-10T07:57:32.095Z,8.0
2023-04-10T08:02:38.405Z,8.0
2023-04-10T08:07:43.522Z,7.0
2023-04-10T08:12:49.721Z,8.0
2023-04-10T08:17:55.959Z,7.0
2023-04-10T08:23:12.964Z,8.0
2023-04-10T08:28:08.365Z,7.0
2023-04-10T08:33:14.580Z,7.0
2023-04-10T08:38:20.802Z,7.0
2023-04-10T08:43:27.000Z,7.0
2023-04-10T08:48:33.198Z,7.0
2023-04-10T08:53:39.403Z,7.0
2023-04-10T08:58:45.617Z,7.0
2023-04-10T09:03:51.897Z,6.0
2023-04-10T09:08:58.123Z,7.0
2023-04-10T09:14:04.241Z,6.0
2023-04-10T09:19:10.444Z,6.0
2023-04-10T09:24:16.654Z,6.0
2023-04-10T09:29:22.907Z,6.0
2023-04-10T09:34:29.073Z,6.0
2023-04-10T09:39:35.274Z,6.0
2023-04-10T09:44:41.507Z,6.0
2023-04-10T09:49:47.692Z,5.0
2023-04-10T09:54:52.927Z,6.0
2023-04-10T09:59:59.171Z,6.0
2023-04-10T10:05:04.573Z,5.0
2023-04-10T10:10:10.588Z,6.0
2023-04-10T10:15:16.785Z,6.0
2023-04-10T10:20:23.305Z,6.0
2023-04-10T10:25:29.201Z,6.0
2023-04-10T10:30:35.430Z,6.0
2023-04-10T10:35:41.631Z,6.0
2023-04-10T10:40:47.840Z,6.0
2023-04-10T10:45:54.073Z,6.0
2023-04-10T10:51:00.258Z,6.0
2023-04-10T10:56:06.626Z,5.0
2023-04-10T11:01:12.701Z,5.0
2023-04-10T11:06:18.886Z,5.0
2023-04-10T11:11:25.106Z,6.0
2023-04-10T11:16:31.410Z,5.0
2023-04-10T11:21:37.503Z,5.0
2023-04-10T11:26:43.737Z,5.0
2023-04-10T11:31:49.954Z,4.0
2023-04-10T11:36:56.127Z,4.0
2023-04-10T11:42:02.342Z,4.0
2023-04-10T11:47:08.543Z,4.0
2023-04-10T11:52:13.777Z,4.0
2023-04-10T11:57:19.987Z,4.0
2023-04-10T12:02:25.299Z,4.0
2023-04-10T12:07:32.661Z,3.0
2023-04-10T12:12:37.650Z,3.0
2023-04-10T12:17:43.909Z,3.0
2023-04-10T12:22:50.053Z,3.0
2023-04-10T12:27:56.262Z,3.0
2023-04-10T12:33:02.563Z,3.0
2023-04-10T12:38:08.683Z,3.0
2023-04-10T12:43:14.890Z,3.0
2023-04-10T12:48:21.152Z,3.0
2023-04-10T12:53:27.324Z,3.0
2023-04-10T12:58:33.548Z,3.0
2023-04-10T13:03:40.013Z,3.0
2023-04-10T13:08:45.940Z,3.0
2023-04-10T13:13:52.145Z,3.0
2023-04-10T13:18:58.350Z,3.0
2023-04-10T13:24:04.563Z,3.0
2023-04-10T13:29:10.778Z,3.0
2023-04-10T13:34:16.977Z,3.0
2023-04-10T13:39:23.189Z,3.0
2023-04-10T13:44:29.405Z,3.0
2023-04-10T13:49:34.640Z,3.0
2023-04-10T13:54:40.880Z,3.0
2023-04-10T13:59:47.198Z,3.0
2023-04-10T14:04:53.258Z,3.0
2023-04-10T14:09:59.469Z,3.0
2023-04-10T14:15:05.691Z,3.0
2023-04-10T14:20:11.887Z,2.0
2023-04-10T14:25:18.091Z,3.0
2023-04-10T14:30:24.296Z,3.0
2023-04-10T14:35:30.537Z,3.0
2023-04-10T14:40:36.735Z,3.0
2023-04-10T14:45:41.942Z,3.0
2023-04-10T14:50:48.152Z,3.0
2023-04-10T14:55:54.369Z,2.0
2023-04-10T15:01:00.597Z,2.0
2023-04-10T15:06:06.792Z,2.0
2023-04-10T15:11:12.992Z,2.0
2023-04-10T15:16:19.217Z,2.0
2023-04-10T15:21:25.409Z,2.0
2023-04-10T15:26:31.621Z,2.0
2023-04-10T15:31:37.825Z,3.0
2023-04-10T15:36:43.067Z,2.0
2023-04-10T15:41:49.268Z,2.0
2023-04-10T15:46:54.499Z,2.0
2023-04-10T15:52:00.717Z,2.0
2023-04-10T15:57:06.916Z,2.0
2023-04-10T16:02:13.281Z,2.5
2023-04-10T16:07:19.334Z,3.0
2023-04-10T16:12:25.546Z,3.0
2023-04-10T16:17:31.859Z,3.0
2023-04-10T16:22:37.973Z,3.0
2023-04-10T16:27:44.163Z,2.0
2023-04-10T16:32:50.419Z,2.0
2023-04-10T16:37:56.594Z,2.0
2023-04-10T16:43:02.819Z,3.0
2023-04-10T16:48:09.022Z,3.0
2023-04-10T16:53:15.207Z,3.0
2023-04-10T16:58:21.417Z,3.0
2023-04-10T17:03:27.695Z,2.0
2023-04-10T17:08:33.856Z,2.0
2023-04-10T17:13:40.072Z,3.0
2023-04-10T17:18:46.255Z,4.0
2023-04-10T17:23:52.461Z,5.0
2023-04-10T17:28:58.677Z,5.0
2023-04-10T17:34:04.090Z,4.0
2023-04-10T17:39:10.110Z,5.0
2023-04-10T17:44:16.324Z,5.0
2023-04-10T17:49:22.554Z,5.0
2023-04-10T17:54:28.780Z,5.0
2023-04-10T17:59:34.989Z,5.0
2023-04-10T18:04:41.181Z,5.0
2023-04-10T18:14:53.606Z,5.0
2023-04-10T18:19:59.815Z,5.0
2023-04-10T18:25:06.032Z,5.0
2023-04-10T18:30:12.248Z,5.0
2023-04-10T18:35:18.472Z,5.0
2023-04-10T18:40:24.693Z,4.0
2023-04-10T18:45:30.886Z,4.0
2023-04-10T18:50:37.110Z,3.0
2023-04-10T18:55:43.312Z,3.0
2023-04-10T19:00:49.528Z,3.0
2023-04-10T19:05:55.729Z,3.0
2023-04-10T19:11:02.009Z,3.0
2023-04-10T19:16:08.259Z,5.0
2023-04-10T19:21:14.375Z,3.0
2023-04-10T19:26:19.610Z,3.0
2023-04-10T19:31:25.894Z,2.0
2023-04-10T19:36:31.071Z,2.0
2023-04-10T19:41:37.278Z,2.0
2023-04-10T19:46:42.627Z,1.0
2023-04-10T19:51:48.714Z,1.0
2023-04-10T19:56:54.930Z,1.0
2023-04-10T20:02:01.262Z,1.0
2023-04-10T20:07:07.342Z,1.0
2023-04-10T20:12:13.558Z,2.0
2023-04-10T20:17:19.757Z,2.0
2023-04-10T20:22:25.984Z,1.0
2023-04-10T20:27:32.171Z,2.0
2023-04-10T20:32:38.389Z,2.0
2023-04-10T20:37:44.600Z,1.0
2023-04-10T20:42:50.896Z,2.0
2023-04-10T20:47:57.079Z,2.0
2023-04-10T20:53:03.210Z,2.0
2023-04-10T20:58:09.421Z,2.0
2023-04-10T21:03:15.872Z,2.0
2023-04-10T21:08:21.850Z,2.0
2023-04-10T21:13:28.063Z,2.0
2023-04-10T21:18:34.264Z,2.0
2023-04-10T21:23:40.483Z,2.0
2023-04-10T21:28:46.709Z,2.0
2023-04-10T21:33:51.914Z,3.0
2023-04-10T21:38:58.130Z,2.0
2023-04-10T21:44:03.373Z,3.0
2023-04-10T21:49:09.589Z,3.0
2023-04-10T21:54:15.775Z,3.0
2023-04-10T21:59:21.980Z,3.0
2023-04-10T22:04:28.186Z,2.0
2023-04-10T22:09:34.708Z,3.0
2023-04-10T22:14:40.612Z,3.0
2023-04-10T22:19:46.826Z,2.0
2023-04-10T22:24:53.019Z,3.0
2023-04-10T22:30:03.986Z,3.0
2023-04-10T22:35:05.439Z,3.0
2023-04-10T22:40:11.652Z,3.0
2023-04-10T22:45:17.849Z,3.0
2023-04-10T22:50:24.066Z,3.0
2023-04-10T22:55:30.269Z,3.0
2023-04-10T23:00:36.797Z,3.0
2023-04-10T23:05:42.679Z,3.0
2023-04-10T23:10:48.907Z,3.0
2023-04-10T23:15:55.177Z,3.0
2023-04-10T23:21:01.308Z,4.0
2023-04-10T23:26:07.518Z,3.0
2023-04-10T23:31:12.773Z,3.0
2023-04-10T23:36:18.985Z,4.0
2023-04-10T23:41:24.225Z,3.0
2023-04-10T23:46:30.451Z,3.0
2023-04-10T23:51:36.629Z,4.0
2023-04-10T23:56:42.820Z,4.0
